createdAt,value
2024-05-09T00:03:26.955Z,98933.69
2024-05-09T00:08:29.338Z,98938.06
2024-05-09T00:13:31.366Z,98941.09
2024-05-09T00:18:33.641Z,98925.44
2024-05-09T00:23:35.925Z,98924.22
2024-05-09T00:28:38.191Z,98915.19
2024-05-09T00:33:40.454Z,98913.75
2024-05-09T00:38:42.446Z,98909.81
2024-05-09T00:43:44.340Z,98919.69
2024-05-09T00:48:49.423Z,98914.34
2024-05-09T00:53:51.424Z,98916.94
2024-05-09T00:58:53.814Z,98910.88
2024-05-09T01:03:56.451Z,98922.66
2024-05-09T01:08:58.532Z,98921.56
2024-05-09T01:14:00.620Z,98919.50
2024-05-09T01:19:04.747Z,98924.56
2024-05-09T01:24:07.084Z,98922.97
2024-05-09T01:29:09.213Z,98931.00
2024-05-09T01:34:11.340Z,98925.91
2024-05-09T01:39:13.455Z,98931.00
2024-05-09T01:44:15.361Z,98938.09
2024-05-09T01:49:17.488Z,98946.25
2024-05-09T01:54:19.468Z,98935.88
2024-05-09T01:59:21.687Z,98937.78
2024-05-09T02:04:23.983Z,98938.78
2024-05-09T02:09:26.147Z,98944.41
2024-05-09T02:14:28.154Z,98939.94
2024-05-09T02:19:32.225Z,98936.59
2024-05-09T02:24:35.377Z,98926.97
2024-05-09T02:29:37.345Z,98935.03
2024-05-09T02:34:39.403Z,98936.97
2024-05-09T02:39:41.335Z,98939.31
2024-05-09T02:44:43.432Z,98935.78
2024-05-09T02:49:45.727Z,98938.41
2024-05-09T02:54:47.988Z,98934.78
2024-05-09T02:59:49.980Z,98931.88
2024-05-09T03:04:51.927Z,98930.16
2024-05-09T03:09:53.889Z,98944.34
2024-05-09T03:14:55.802Z,98938.38
2024-05-09T03:19:57.787Z,98936.41
2024-05-09T03:25:00.115Z,98943.09
2024-05-09T03:30:03.818Z,98935.72
2024-05-09T03:35:07.842Z,98946.25
2024-05-09T03:40:17.533Z,98927.66
2024-05-09T03:45:22.731Z,98936.97
2024-05-09T03:50:30.232Z,98940.69
2024-05-09T03:55:36.281Z,98934.25
2024-05-09T04:00:40.046Z,98939.16
2024-05-09T04:05:44.033Z,98942.06
2024-05-09T04:10:46.760Z,98944.47
2024-05-09T04:15:48.671Z,98949.72
2024-05-09T04:20:50.611Z,98958.75
2024-05-09T04:25:52.778Z,98966.16
2024-05-09T04:30:54.634Z,98960.81
2024-05-09T04:35:56.609Z,98968.91
2024-05-09T04:40:58.528Z,98958.00
2024-05-09T04:46:00.397Z,98951.13
2024-05-09T04:51:03.027Z,98962.28
2024-05-09T04:56:05.377Z,98969.97
2024-05-09T05:01:07.631Z,98966.72
2024-05-09T05:06:09.520Z,98967.94
2024-05-09T05:11:14.398Z,98976.38
2024-05-09T05:16:16.560Z,98978.34
2024-05-09T05:21:18.660Z,98989.78
2024-05-09T05:26:20.905Z,98983.47
2024-05-09T05:31:22.937Z,98990.75
2024-05-09T05:36:25.016Z,98983.38
2024-05-09T05:41:27.587Z,98980.50
2024-05-09T05:46:29.674Z,98981.97
2024-05-09T05:51:31.596Z,98987.97
2024-05-09T05:56:34.744Z,98990.69
2024-05-09T06:01:36.861Z,98995.09
2024-05-09T06:06:38.765Z,98992.16
2024-05-09T06:11:41.548Z,99010.38
2024-05-09T06:16:43.936Z,98997.44
2024-05-09T06:21:46.128Z,99001.59
2024-05-09T06:26:48.084Z,99005.84
2024-05-09T06:31:49.969Z,99014.38
2024-05-09T06:36:52.099Z,99012.66
2024-05-09T06:41:53.939Z,99014.97
2024-05-09T06:46:58.180Z,99018.84
2024-05-09T06:52:01.302Z,99013.78
2024-05-09T06:57:03.266Z,99016.59
2024-05-09T07:02:05.172Z,99012.88
2024-05-09T07:07:09.515Z,99024.06
2024-05-09T07:12:11.742Z,99024.97
2024-05-09T07:17:14.711Z,99030.66
2024-05-09T07:22:16.788Z,99024.69
2024-05-09T07:27:18.789Z,99034.50
2024-05-09T07:32:21.101Z,99033.91
2024-05-09T07:37:23.761Z,99041.66
2024-05-09T07:42:25.617Z,99035.16
2024-05-09T07:53:32.759Z,99043.09
2024-05-09T07:57:54.653Z,99029.91
2024-05-09T08:02:56.694Z,99025.41
2024-05-09T08:07:58.656Z,99031.47
2024-05-09T08:13:00.647Z,99022.59
2024-05-09T08:18:02.896Z,99026.41
2024-05-09T08:23:04.987Z,99025.88
2024-05-09T08:28:07.337Z,99031.78
2024-05-09T08:33:09.444Z,99019.53
2024-05-09T08:38:11.694Z,99014.13
2024-05-09T08:43:14.492Z,99015.16
2024-05-09T08:48:18.370Z,99024.84
2024-05-09T08:53:20.367Z,99015.28
2024-05-09T08:58:22.419Z,99009.84
2024-05-09T09:03:27.009Z,99006.84
2024-05-09T09:08:29.381Z,99015.03
2024-05-09T09:13:31.500Z,99009.53
2024-05-09T09:18:34.693Z,99006.63
2024-05-09T09:23:36.946Z,99013.41
2024-05-09T09:28:40.816Z,99011.13
2024-05-09T09:33:43.423Z,99012.59
2024-05-09T09:38:47.018Z,99006.56
2024-05-09T09:43:49.102Z,99003.53
2024-05-09T09:48:51.422Z,99009.88
2024-05-09T09:53:53.772Z,99009.88
2024-05-09T09:58:56.312Z,99009.00
2024-05-09T10:03:58.388Z,99001.28
2024-05-09T10:09:00.890Z,98999.88
2024-05-09T10:14:03.021Z,98997.19
2024-05-09T10:19:05.155Z,99005.56
2024-05-09T10:24:07.547Z,98992.41
2024-05-09T10:29:18.236Z,98985.78
2024-05-09T10:34:23.423Z,98985.47
2024-05-09T10:39:26.012Z,98977.13
2024-05-09T10:44:28.110Z,98975.28
2024-05-09T10:49:30.492Z,98970.69
2024-05-09T10:54:36.688Z,98954.81
2024-05-09T10:59:40.040Z,98961.94
2024-05-09T11:04:42.560Z,98956.84
2024-05-09T11:09:52.681Z,98948.13
2024-05-09T11:14:55.118Z,98943.50
2024-05-09T11:19:57.142Z,98940.63
2024-05-09T11:25:03.100Z,98932.47
2024-05-09T11:30:07.347Z,98925.34
2024-05-09T11:35:13.384Z,98923.41
2024-05-09T11:40:21.468Z,98914.56
2024-05-09T11:45:27.680Z,98909.44
2024-05-09T11:50:34.940Z,98912.88
2024-05-09T11:55:38.476Z,98903.72
2024-05-09T12:00:40.603Z,98895.72
2024-05-09T12:05:43.966Z,98894.28
2024-05-09T12:10:47.124Z,98899.31
2024-05-09T12:15:49.628Z,98886.06
2024-05-09T12:20:52.320Z,98882.56
2024-05-09T12:25:54.405Z,98879.13
2024-05-09T12:30:56.502Z,98869.53
2024-05-09T12:35:58.626Z,98870.00
2024-05-09T12:41:01.006Z,98865.50
2024-05-09T12:46:04.494Z,98866.44
2024-05-09T12:51:06.799Z,98853.03
2024-05-09T12:56:11.634Z,98858.66
2024-05-09T13:01:14.011Z,98856.84
2024-05-09T13:06:16.101Z,98850.88
2024-05-09T13:11:18.368Z,98843.97
2024-05-09T13:16:36.849Z,98836.53
2024-05-09T13:21:39.272Z,98841.84
2024-05-09T13:26:44.550Z,98833.09
2024-05-09T13:31:46.495Z,98832.25
2024-05-09T13:36:48.595Z,98823.56
2024-05-09T13:41:53.755Z,98822.97
2024-05-09T13:46:55.827Z,98811.34
2024-05-09T13:51:58.042Z,98809.16
2024-05-09T13:57:03.567Z,98797.41
2024-05-09T14:02:06.155Z,98796.81
2024-05-09T14:07:13.439Z,98795.84
2024-05-09T14:12:15.978Z,98793.59
2024-05-09T14:17:18.293Z,98798.53
2024-05-09T14:22:20.803Z,98787.25
2024-05-09T14:27:22.905Z,98781.72
2024-05-09T14:32:25.374Z,98783.41
2024-05-09T14:37:31.497Z,98783.16
2024-05-09T14:42:36.389Z,98787.00
2024-05-09T14:47:41.637Z,98782.69
2024-05-09T14:52:43.945Z,98780.91
2024-05-09T14:57:46.073Z,98782.41
2024-05-09T15:02:51.384Z,98776.91
2024-05-09T15:07:53.920Z,98774.00
2024-05-09T15:13:00.428Z,98784.69
2024-05-09T15:18:03.834Z,98784.50
2024-05-09T15:23:07.000Z,98773.66
2024-05-09T15:28:12.745Z,98778.03
2024-05-09T15:33:15.152Z,98775.25
2024-05-09T15:38:18.650Z,98770.56
2024-05-09T15:43:21.028Z,98770.53
2024-05-09T15:48:23.263Z,98770.22
2024-05-09T15:53:25.334Z,98763.69
2024-05-09T15:58:28.828Z,98769.63
2024-05-09T16:03:31.125Z,98758.91
2024-05-09T16:08:34.534Z,98757.38
2024-05-09T16:13:36.532Z,98757.59
2024-05-09T16:18:38.854Z,98754.19
2024-05-09T16:23:41.079Z,98763.59
2024-05-09T16:28:43.141Z,98764.97
2024-05-09T16:33:47.211Z,98766.69
2024-05-09T16:38:49.278Z,98775.00
2024-05-09T16:43:51.168Z,98777.38
2024-05-09T16:48:53.499Z,98776.63
2024-05-09T16:53:55.577Z,98777.28
2024-05-09T16:58:57.601Z,98781.22
2024-05-09T17:03:59.762Z,98783.03
2024-05-09T17:09:08.622Z,98791.84
2024-05-09T17:14:13.765Z,98777.19
2024-05-09T17:19:15.892Z,98780.41
2024-05-09T17:24:17.861Z,98783.72
2024-05-09T17:29:21.875Z,98792.00
2024-05-09T17:34:25.538Z,98791.78
2024-05-09T17:39:27.506Z,98802.56
2024-05-09T17:44:29.572Z,98811.44
2024-05-09T17:49:31.607Z,98813.97
2024-05-09T17:54:33.604Z,98822.34
2024-05-09T17:59:35.478Z,98812.09
2024-05-09T18:04:37.412Z,98833.00
2024-05-09T18:09:39.752Z,98832.44
2024-05-09T18:14:41.593Z,98831.59
2024-05-09T18:19:43.565Z,98831.75
2024-05-09T18:24:46.041Z,98834.16
2024-05-09T18:29:48.001Z,98831.63
2024-05-09T18:34:50.407Z,98836.13
2024-05-09T18:39:52.777Z,98843.06
2024-05-09T18:44:55.311Z,98839.13
2024-05-09T18:49:58.164Z,98848.00
2024-05-09T18:55:00.634Z,98860.09
2024-05-09T19:00:02.823Z,98863.00
2024-05-09T19:05:06.161Z,98866.63
2024-05-09T19:10:21.560Z,98875.47
2024-05-09T19:15:25.320Z,98884.09
2024-05-09T19:20:33.376Z,98886.03
2024-05-09T19:25:37.991Z,98897.91
2024-05-09T19:30:43.093Z,98895.63
2024-05-09T19:35:45.952Z,98903.66
2024-05-09T19:40:48.316Z,98909.72
2024-05-09T19:45:51.412Z,98908.44
2024-05-09T19:50:54.738Z,98920.16
2024-05-09T19:55:58.962Z,98930.28
2024-05-09T20:01:02.123Z,98929.41
2024-05-09T20:06:04.738Z,98931.31
2024-05-09T20:11:06.699Z,98927.19
2024-05-09T20:16:09.467Z,98930.59
2024-05-09T20:21:12.404Z,98932.94
2024-05-09T20:26:14.461Z,98939.06
2024-05-09T20:31:20.691Z,98951.03
2024-05-09T20:36:22.978Z,98953.50
2024-05-09T20:41:25.722Z,98956.59
2024-05-09T20:46:28.073Z,98958.66
2024-05-09T20:51:30.435Z,98960.47
2024-05-09T20:56:32.452Z,98962.84
2024-05-09T21:01:34.552Z,98973.38
2024-05-09T21:06:36.516Z,98976.25
2024-05-09T21:11:38.478Z,98974.28
2024-05-09T21:16:40.682Z,98973.31
2024-05-09T21:21:42.895Z,98978.38
2024-05-09T21:26:44.808Z,98983.19
2024-05-09T21:31:46.643Z,98984.06
2024-05-09T21:36:48.672Z,98989.38
2024-05-09T21:41:51.480Z,98987.94
2024-05-09T21:46:53.578Z,98986.59
2024-05-09T21:51:55.736Z,98990.47
2024-05-09T21:56:57.887Z,98989.59
2024-05-09T22:02:00.123Z,98987.47
2024-05-09T22:07:02.139Z,98997.00
2024-05-09T22:12:04.958Z,98992.38
2024-05-09T22:17:06.990Z,99003.56
2024-05-09T22:22:08.919Z,99006.81
2024-05-09T22:27:12.125Z,99008.84
2024-05-09T22:32:14.106Z,99010.31
2024-05-09T22:37:16.340Z,99012.16
2024-05-09T22:42:18.444Z,99006.88
2024-05-09T22:47:20.427Z,99021.16
2024-05-09T22:52:22.716Z,99006.25
2024-05-09T22:57:24.871Z,99009.47
2024-05-09T23:02:27.099Z,98993.81
2024-05-09T23:07:29.095Z,98997.09
2024-05-09T23:12:31.013Z,98998.41
2024-05-09T23:17:32.902Z,98994.88
2024-05-09T23:22:35.085Z,98998.53
2024-05-09T23:27:37.528Z,99003.94
2024-05-09T23:32:39.645Z,98994.78
2024-05-09T23:37:42.078Z,98990.72
2024-05-09T23:42:44.281Z,98986.75
2024-05-09T23:47:46.957Z,98976.19
2024-05-09T23:52:48.967Z,98976.53
2024-05-09T23:57:50.845Z,98976.81
